sensor_id;sensor_type;location;lat;lon;timestamp;temperature;humidity
46552;DHT22;32278;51.810;4.712;2022-11-24T00:02:08;12.70;99.90
46552;DHT22;32278;51.810;4.712;2022-11-24T00:04:34;12.80;99.90
46552;DHT22;32278;51.810;4.712;2022-11-24T00:07:00;12.70;99.90
46552;DHT22;32278;51.810;4.712;2022-11-24T00:09:25;12.70;99.90
46552;DHT22;32278;51.810;4.712;2022-11-24T00:11:51;12.70;99.90
46552;DHT22;32278;51.810;4.712;2022-11-24T00:14:17;12.60;99.90
46552;DHT22;32278;51.810;4.712;2022-11-24T00:16:42;12.50;99.90
46552;DHT22;32278;51.810;4.712;2022-11-24T00:19:08;12.50;99.90
46552;DHT22;32278;51.810;4.712;2022-11-24T00:21:35;12.40;99.90
46552;DHT22;32278;51.810;4.712;2022-11-24T00:24:01;12.40;99.90
46552;DHT22;32278;51.810;4.712;2022-11-24T00:26:29;12.30;99.90
46552;DHT22;32278;51.810;4.712;2022-11-24T00:29:00;12.30;99.90
46552;DHT22;32278;51.810;4.712;2022-11-24T00:31:31;12.20;99.90
46552;DHT22;32278;51.810;4.712;2022-11-24T00:34:00;12.10;99.90
46552;DHT22;32278;51.810;4.712;2022-11-24T00:36:28;12.10;99.90
46552;DHT22;32278;51.810;4.712;2022-11-24T00:38:56;12.10;99.90
46552;DHT22;32278;51.810;4.712;2022-11-24T00:41:23;12.00;99.90
46552;DHT22;32278;51.810;4.712;2022-11-24T00:43:49;12.10;99.90
46552;DHT22;32278;51.810;4.712;2022-11-24T00:46:15;12.00;99.90
46552;DHT22;32278;51.810;4.712;2022-11-24T00:48:41;12.00;99.90
46552;DHT22;32278;51.810;4.712;2022-11-24T00:51:09;11.90;99.90
46552;DHT22;32278;51.810;4.712;2022-11-24T00:53:35;11.90;99.90
46552;DHT22;32278;51.810;4.712;2022-11-24T00:56:01;11.90;99.90
46552;DHT22;32278;51.810;4.712;2022-11-24T00:58:28;11.90;99.90
46552;DHT22;32278;51.810;4.712;2022-11-24T01:00:54;11.90;99.90
46552;DHT22;32278;51.810;4.712;2022-11-24T01:03:25;11.80;99.90
46552;DHT22;32278;51.810;4.712;2022-11-24T01:05:51;11.80;99.90
46552;DHT22;32278;51.810;4.712;2022-11-24T01:08:16;11.80;99.90
46552;DHT22;32278;51.810;4.712;2022-11-24T01:10:42;11.80;99.90
46552;DHT22;32278;51.810;4.712;2022-11-24T01:13:07;11.80;99.90
46552;DHT22;32278;51.810;4.712;2022-11-24T01:15:34;11.80;99.90
46552;DHT22;32278;51.810;4.712;2022-11-24T01:18:00;11.80;99.90
46552;DHT22;32278;51.810;4.712;2022-11-24T01:20:26;11.70;99.90
46552;DHT22;32278;51.810;4.712;2022-11-24T01:22:52;11.70;99.90
46552;DHT22;32278;51.810;4.712;2022-11-24T01:25:17;11.70;99.90
46552;DHT22;32278;51.810;4.712;2022-11-24T01:27:43;11.70;99.90
46552;DHT22;32278;51.810;4.712;2022-11-24T01:30:09;11.70;99.90
46552;DHT22;32278;51.810;4.712;2022-11-24T01:32:35;11.60;99.90
46552;DHT22;32278;51.810;4.712;2022-11-24T01:35:03;11.60;99.90
46552;DHT22;32278;51.810;4.712;2022-11-24T01:37:29;11.60;99.90
46552;DHT22;32278;51.810;4.712;2022-11-24T01:39:55;11.70;99.90
46552;DHT22;32278;51.810;4.712;2022-11-24T01:42:21;11.60;99.90
46552;DHT22;32278;51.810;4.712;2022-11-24T01:44:49;11.70;99.90
46552;DHT22;32278;51.810;4.712;2022-11-24T01:47:33;11.60;99.90
46552;DHT22;32278;51.810;4.712;2022-11-24T01:50:01;11.60;99.90
46552;DHT22;32278;51.810;4.712;2022-11-24T01:52:35;11.60;99.90
46552;DHT22;32278;51.810;4.712;2022-11-24T01:55:06;11.50;99.90
46552;DHT22;32278;51.810;4.712;2022-11-24T01:57:39;11.50;99.90
46552;DHT22;32278;51.810;4.712;2022-11-24T02:00:11;11.40;99.90
46552;DHT22;32278;51.810;4.712;2022-11-24T02:02:37;11.40;99.90
46552;DHT22;32278;51.810;4.712;2022-11-24T02:05:19;11.40;99.90
46552;DHT22;32278;51.810;4.712;2022-11-24T02:07:46;11.30;99.90
46552;DHT22;32278;51.810;4.712;2022-11-24T02:10:15;11.30;99.90
46552;DHT22;32278;51.810;4.712;2022-11-24T02:12:45;11.30;99.90
46552;DHT22;32278;51.810;4.712;2022-11-24T02:15:13;11.30;99.90
46552;DHT22;32278;51.810;4.712;2022-11-24T02:17:39;11.20;99.90
46552;DHT22;32278;51.810;4.712;2022-11-24T02:20:07;11.20;99.90
46552;DHT22;32278;51.810;4.712;2022-11-24T02:22:50;11.20;99.90
46552;DHT22;32278;51.810;4.712;2022-11-24T02:27:44;11.00;99.90
46552;DHT22;32278;51.810;4.712;2022-11-24T02:30:10;10.90;99.90
46552;DHT22;32278;51.810;4.712;2022-11-24T02:32:38;10.90;99.90
46552;DHT22;32278;51.810;4.712;2022-11-24T02:35:06;10.80;99.90
46552;DHT22;32278;51.810;4.712;2022-11-24T02:37:32;10.70;99.90
46552;DHT22;32278;51.810;4.712;2022-11-24T02:39:58;10.70;99.90
46552;DHT22;32278;51.810;4.712;2022-11-24T02:42:25;10.70;99.90
46552;DHT22;32278;51.810;4.712;2022-11-24T02:44:56;10.60;99.90
46552;DHT22;32278;51.810;4.712;2022-11-24T02:47:23;10.50;99.90
46552;DHT22;32278;51.810;4.712;2022-11-24T02:49:48;10.50;99.90
46552;DHT22;32278;51.810;4.712;2022-11-24T02:52:14;10.60;99.90
46552;DHT22;32278;51.810;4.712;2022-11-24T02:54:40;10.60;99.90
46552;DHT22;32278;51.810;4.712;2022-11-24T02:57:06;10.60;99.90
46552;DHT22;32278;51.810;4.712;2022-11-24T02:59:32;10.60;99.90
46552;DHT22;32278;51.810;4.712;2022-11-24T03:01:58;10.70;99.90
46552;DHT22;32278;51.810;4.712;2022-11-24T03:04:23;10.70;99.90
46552;DHT22;32278;51.810;4.712;2022-11-24T03:06:49;10.80;99.90
46552;DHT22;32278;51.810;4.712;2022-11-24T03:09:15;10.90;99.90
46552;DHT22;32278;51.810;4.712;2022-11-24T03:11:40;11.00;99.90
46552;DHT22;32278;51.810;4.712;2022-11-24T03:14:06;11.00;99.90
46552;DHT22;32278;51.810;4.712;2022-11-24T03:16:32;11.10;99.90
46552;DHT22;32278;51.810;4.712;2022-11-24T03:18:58;11.10;99.90
46552;DHT22;32278;51.810;4.712;2022-11-24T03:21:24;11.20;99.90
46552;DHT22;32278;51.810;4.712;2022-11-24T03:23:51;11.30;99.90
46552;DHT22;32278;51.810;4.712;2022-11-24T03:26:20;11.30;99.90
46552;DHT22;32278;51.810;4.712;2022-11-24T03:28:46;11.20;99.90
46552;DHT22;32278;51.810;4.712;2022-11-24T03:31:12;11.20;99.90
46552;DHT22;32278;51.810;4.712;2022-11-24T03:33:38;11.20;99.90
46552;DHT22;32278;51.810;4.712;2022-11-24T03:36:05;11.20;99.90
46552;DHT22;32278;51.810;4.712;2022-11-24T03:38:31;11.20;99.90
46552;DHT22;32278;51.810;4.712;2022-11-24T03:40:57;11.20;99.90
46552;DHT22;32278;51.810;4.712;2022-11-24T03:43:22;11.20;99.90
46552;DHT22;32278;51.810;4.712;2022-11-24T03:45:48;11.30;99.90
46552;DHT22;32278;51.810;4.712;2022-11-24T03:48:15;11.30;99.90
46552;DHT22;32278;51.810;4.712;2022-11-24T03:50:42;11.40;99.90
46552;DHT22;32278;51.810;4.712;2022-11-24T03:53:08;11.50;99.90
46552;DHT22;32278;51.810;4.712;2022-11-24T03:55:34;11.50;99.90
46552;DHT22;32278;51.810;4.712;2022-11-24T03:58:00;11.50;99.90
46552;DHT22;32278;51.810;4.712;2022-11-24T04:00:26;11.60;99.90
46552;DHT22;32278;51.810;4.712;2022-11-24T04:02:52;11.70;99.90
46552;DHT22;32278;51.810;4.712;2022-11-24T04:05:18;11.70;99.90
46552;DHT22;32278;51.810;4.712;2022-11-24T04:07:43;11.80;99.90
46552;DHT22;32278;51.810;4.712;2022-11-24T04:10:09;11.70;99.90
46552;DHT22;32278;51.810;4.712;2022-11-24T04:12:35;11.80;99.90
46552;DHT22;32278;51.810;4.712;2022-11-24T04:15:17;11.80;99.90
46552;DHT22;32278;51.810;4.712;2022-11-24T04:17:44;11.80;99.90
46552;DHT22;32278;51.810;4.712;2022-11-24T04:20:11;11.90;99.90
46552;DHT22;32278;51.810;4.712;2022-11-24T04:22:38;12.00;99.90
46552;DHT22;32278;51.810;4.712;2022-11-24T04:25:04;12.10;99.90
46552;DHT22;32278;51.810;4.712;2022-11-24T04:27:34;12.20;99.90
46552;DHT22;32278;51.810;4.712;2022-11-24T04:30:00;12.30;99.90
46552;DHT22;32278;51.810;4.712;2022-11-24T04:32:25;12.40;99.90
46552;DHT22;32278;51.810;4.712;2022-11-24T04:34:51;12.50;99.90
46552;DHT22;32278;51.810;4.712;2022-11-24T04:37:16;12.50;99.90
46552;DHT22;32278;51.810;4.712;2022-11-24T04:39:42;12.50;99.90
46552;DHT22;32278;51.810;4.712;2022-11-24T04:42:09;12.50;99.90
46552;DHT22;32278;51.810;4.712;2022-11-24T04:44:34;12.50;99.90
46552;DHT22;32278;51.810;4.712;2022-11-24T04:47:00;12.50;99.90
46552;DHT22;32278;51.810;4.712;2022-11-24T04:49:26;12.60;99.90
46552;DHT22;32278;51.810;4.712;2022-11-24T04:51:51;12.60;99.90
46552;DHT22;32278;51.810;4.712;2022-11-24T04:54:17;12.60;99.90
46552;DHT22;32278;51.810;4.712;2022-11-24T04:56:43;12.60;99.90
46552;DHT22;32278;51.810;4.712;2022-11-24T04:59:13;12.70;99.90
46552;DHT22;32278;51.810;4.712;2022-11-24T05:01:44;12.80;99.90
46552;DHT22;32278;51.810;4.712;2022-11-24T05:04:11;12.80;99.90
46552;DHT22;32278;51.810;4.712;2022-11-24T05:06:38;13.00;99.90
46552;DHT22;32278;51.810;4.712;2022-11-24T05:09:04;13.10;99.90
46552;DHT22;32278;51.810;4.712;2022-11-24T05:11:30;13.10;99.90
46552;DHT22;32278;51.810;4.712;2022-11-24T05:13:56;13.10;99.90
46552;DHT22;32278;51.810;4.712;2022-11-24T05:16:21;13.10;99.90
46552;DHT22;32278;51.810;4.712;2022-11-24T05:18:47;13.30;99.90
46552;DHT22;32278;51.810;4.712;2022-11-24T05:21:13;13.30;99.90
46552;DHT22;32278;51.810;4.712;2022-11-24T05:23:38;13.40;99.90
46552;DHT22;32278;51.810;4.712;2022-11-24T05:26:04;13.60;99.90
46552;DHT22;32278;51.810;4.712;2022-11-24T05:28:30;13.60;99.90
46552;DHT22;32278;51.810;4.712;2022-11-24T05:31:00;13.60;99.90
46552;DHT22;32278;51.810;4.712;2022-11-24T05:33:26;13.70;99.90
46552;DHT22;32278;51.810;4.712;2022-11-24T05:35:53;13.70;99.90
46552;DHT22;32278;51.810;4.712;2022-11-24T05:38:19;13.60;99.90
46552;DHT22;32278;51.810;4.712;2022-11-24T05:40:47;13.70;99.90
46552;DHT22;32278;51.810;4.712;2022-11-24T05:43:14;13.80;99.90
46552;DHT22;32278;51.810;4.712;2022-11-24T05:45:40;13.90;99.90
46552;DHT22;32278;51.810;4.712;2022-11-24T05:48:09;14.20;99.90
46552;DHT22;32278;51.810;4.712;2022-11-24T05:50:35;14.20;99.90
46552;DHT22;32278;51.810;4.712;2022-11-24T05:53:03;13.90;99.90
46552;DHT22;32278;51.810;4.712;2022-11-24T05:55:29;13.90;99.90
46552;DHT22;32278;51.810;4.712;2022-11-24T05:57:59;13.80;99.90
46552;DHT22;32278;51.810;4.712;2022-11-24T06:00:26;13.70;99.90
46552;DHT22;32278;51.810;4.712;2022-11-24T06:02:51;13.80;99.90
46552;DHT22;32278;51.810;4.712;2022-11-24T06:05:17;13.80;99.90
46552;DHT22;32278;51.810;4.712;2022-11-24T06:07:42;13.80;99.90
46552;DHT22;32278;51.810;4.712;2022-11-24T06:10:08;13.80;99.90
46552;DHT22;32278;51.810;4.712;2022-11-24T06:12:34;13.80;99.90
46552;DHT22;32278;51.810;4.712;2022-11-24T06:15:00;13.80;99.90
46552;DHT22;32278;51.810;4.712;2022-11-24T06:17:26;13.50;99.90
46552;DHT22;32278;51.810;4.712;2022-11-24T06:19:51;13.60;99.90
46552;DHT22;32278;51.810;4.712;2022-11-24T06:22:17;13.60;99.90
46552;DHT22;32278;51.810;4.712;2022-11-24T06:24:44;13.60;99.90
46552;DHT22;32278;51.810;4.712;2022-11-24T06:27:11;13.70;99.90
46552;DHT22;32278;51.810;4.712;2022-11-24T06:29:37;13.70;99.90
46552;DHT22;32278;51.810;4.712;2022-11-24T06:32:04;13.70;99.90
46552;DHT22;32278;51.810;4.712;2022-11-24T06:34:29;13.70;99.90
46552;DHT22;32278;51.810;4.712;2022-11-24T06:36:55;13.70;99.90
46552;DHT22;32278;51.810;4.712;2022-11-24T06:39:20;13.80;99.90
46552;DHT22;32278;51.810;4.712;2022-11-24T06:41:49;13.90;99.90
46552;DHT22;32278;51.810;4.712;2022-11-24T06:44:15;13.90;99.90
46552;DHT22;32278;51.810;4.712;2022-11-24T06:46:40;14.00;99.90
46552;DHT22;32278;51.810;4.712;2022-11-24T06:49:06;14.00;99.90
46552;DHT22;32278;51.810;4.712;2022-11-24T06:51:32;14.10;99.90
46552;DHT22;32278;51.810;4.712;2022-11-24T06:53:57;14.10;99.90
46552;DHT22;32278;51.810;4.712;2022-11-24T06:56:23;14.10;99.90
46552;DHT22;32278;51.810;4.712;2022-11-24T06:58:51;14.10;99.90
46552;DHT22;32278;51.810;4.712;2022-11-24T07:01:22;14.10;99.90
46552;DHT22;32278;51.810;4.712;2022-11-24T07:03:48;14.30;99.90
46552;DHT22;32278;51.810;4.712;2022-11-24T07:06:14;14.20;99.90
46552;DHT22;32278;51.810;4.712;2022-11-24T07:08:40;14.30;99.90
46552;DHT22;32278;51.810;4.712;2022-11-24T07:11:07;14.10;99.90
46552;DHT22;32278;51.810;4.712;2022-11-24T07:13:33;14.10;99.90
46552;DHT22;32278;51.810;4.712;2022-11-24T07:16:08;14.10;99.90
46552;DHT22;32278;51.810;4.712;2022-11-24T07:18:34;14.20;99.90
46552;DHT22;32278;51.810;4.712;2022-11-24T07:21:03;14.10;99.90
46552;DHT22;32278;51.810;4.712;2022-11-24T07:23:28;14.00;99.90
46552;DHT22;32278;51.810;4.712;2022-11-24T07:25:54;14.00;99.90
46552;DHT22;32278;51.810;4.712;2022-11-24T07:28:20;14.00;99.90
46552;DHT22;32278;51.810;4.712;2022-11-24T07:30:45;14.00;99.90
46552;DHT22;32278;51.810;4.712;2022-11-24T07:33:11;14.10;99.90
46552;DHT22;32278;51.810;4.712;2022-11-24T07:35:37;14.10;99.90
46552;DHT22;32278;51.810;4.712;2022-11-24T07:38:02;14.10;99.90
46552;DHT22;32278;51.810;4.712;2022-11-24T07:40:28;14.10;99.90
46552;DHT22;32278;51.810;4.712;2022-11-24T07:42:53;14.00;99.90
46552;DHT22;32278;51.810;4.712;2022-11-24T07:45:19;13.90;99.90
46552;DHT22;32278;51.810;4.712;2022-11-24T07:47:45;13.90;99.90
46552;DHT22;32278;51.810;4.712;2022-11-24T07:50:11;14.00;99.90
46552;DHT22;32278;51.810;4.712;2022-11-24T07:52:37;14.10;99.90
46552;DHT22;32278;51.810;4.712;2022-11-24T07:55:03;14.10;99.90
46552;DHT22;32278;51.810;4.712;2022-11-24T07:57:29;14.10;99.90
46552;DHT22;32278;51.810;4.712;2022-11-24T07:59:55;14.00;99.90
46552;DHT22;32278;51.810;4.712;2022-11-24T08:02:21;14.00;99.90
46552;DHT22;32278;51.810;4.712;2022-11-24T08:04:46;14.10;99.90
46552;DHT22;32278;51.810;4.712;2022-11-24T08:07:12;14.10;99.90
46552;DHT22;32278;51.810;4.712;2022-11-24T08:09:38;14.10;99.90
46552;DHT22;32278;51.810;4.712;2022-11-24T08:12:03;14.20;99.90
46552;DHT22;32278;51.810;4.712;2022-11-24T08:14:29;14.20;99.90
46552;DHT22;32278;51.810;4.712;2022-11-24T08:16:56;14.10;99.90
46552;DHT22;32278;51.810;4.712;2022-11-24T08:19:21;14.00;99.90
46552;DHT22;32278;51.810;4.712;2022-11-24T08:21:47;14.00;99.90
46552;DHT22;32278;51.810;4.712;2022-11-24T08:24:12;14.00;99.90
46552;DHT22;32278;51.810;4.712;2022-11-24T08:26:40;14.10;99.90
46552;DHT22;32278;51.810;4.712;2022-11-24T08:29:06;14.10;99.90
46552;DHT22;32278;51.810;4.712;2022-11-24T08:31:32;14.10;99.90
46552;DHT22;32278;51.810;4.712;2022-11-24T08:33:59;14.00;99.90
46552;DHT22;32278;51.810;4.712;2022-11-24T08:36:25;14.10;99.90
46552;DHT22;32278;51.810;4.712;2022-11-24T08:38:55;14.10;99.90
46552;DHT22;32278;51.810;4.712;2022-11-24T08:41:21;14.00;99.90
46552;DHT22;32278;51.810;4.712;2022-11-24T08:43:47;14.10;99.90
46552;DHT22;32278;51.810;4.712;2022-11-24T08:46:14;14.10;99.90
46552;DHT22;32278;51.810;4.712;2022-11-24T08:48:51;14.00;99.90
46552;DHT22;32278;51.810;4.712;2022-11-24T08:51:20;13.90;99.90
46552;DHT22;32278;51.810;4.712;2022-11-24T08:53:46;13.80;99.90
46552;DHT22;32278;51.810;4.712;2022-11-24T08:56:12;13.80;99.90
46552;DHT22;32278;51.810;4.712;2022-11-24T08:58:38;13.80;99.90
46552;DHT22;32278;51.810;4.712;2022-11-24T09:01:07;13.90;99.90
46552;DHT22;32278;51.810;4.712;2022-11-24T09:03:33;13.80;99.90
46552;DHT22;32278;51.810;4.712;2022-11-24T09:06:00;13.90;99.90
46552;DHT22;32278;51.810;4.712;2022-11-24T09:08:25;13.80;99.90
46552;DHT22;32278;51.810;4.712;2022-11-24T09:10:51;13.80;99.90
46552;DHT22;32278;51.810;4.712;2022-11-24T09:13:17;13.70;99.90
46552;DHT22;32278;51.810;4.712;2022-11-24T09:15:42;13.60;99.90
46552;DHT22;32278;51.810;4.712;2022-11-24T09:18:08;13.50;99.90
46552;DHT22;32278;51.810;4.712;2022-11-24T09:20:34;13.50;99.90
46552;DHT22;32278;51.810;4.712;2022-11-24T09:22:59;13.50;99.90
46552;DHT22;32278;51.810;4.712;2022-11-24T09:25:25;13.50;99.90
46552;DHT22;32278;51.810;4.712;2022-11-24T09:27:50;13.30;99.90
46552;DHT22;32278;51.810;4.712;2022-11-24T09:30:16;13.10;99.90
46552;DHT22;32278;51.810;4.712;2022-11-24T09:32:42;13.00;99.90
46552;DHT22;32278;51.810;4.712;2022-11-24T09:35:08;12.90;99.90
46552;DHT22;32278;51.810;4.712;2022-11-24T09:37:34;12.90;99.90
46552;DHT22;32278;51.810;4.712;2022-11-24T09:40:00;12.80;99.90
46552;DHT22;32278;51.810;4.712;2022-11-24T09:45:25;12.80;99.90
46552;DHT22;32278;51.810;4.712;2022-11-24T09:48:02;12.70;99.90
46552;DHT22;32278;51.810;4.712;2022-11-24T09:50:34;12.60;99.90
46552;DHT22;32278;51.810;4.712;2022-11-24T09:53:26;12.50;99.90
46552;DHT22;32278;51.810;4.712;2022-11-24T09:58:50;12.50;99.90
46552;DHT22;32278;51.810;4.712;2022-11-24T10:01:21;12.30;99.90
46552;DHT22;32278;51.810;4.712;2022-11-24T10:03:52;12.20;99.90
46552;DHT22;32278;51.810;4.712;2022-11-24T10:06:20;12.00;99.90
46552;DHT22;32278;51.810;4.712;2022-11-24T10:14:17;12.20;99.90
46552;DHT22;32278;51.810;4.712;2022-11-24T10:19:39;12.20;99.90
46552;DHT22;32278;51.810;4.712;2022-11-24T10:25:06;12.20;99.90
46552;DHT22;32278;51.810;4.712;2022-11-24T10:27:46;12.10;99.90
46552;DHT22;32278;51.810;4.712;2022-11-24T10:30:19;12.10;99.90
46552;DHT22;32278;51.810;4.712;2022-11-24T10:32:52;12.00;99.90
46552;DHT22;32278;51.810;4.712;2022-11-24T10:35:25;11.90;99.90
46552;DHT22;32278;51.810;4.712;2022-11-24T10:40:56;11.80;99.90
46552;DHT22;32278;51.810;4.712;2022-11-24T10:43:27;11.90;99.90
46552;DHT22;32278;51.810;4.712;2022-11-24T10:45:55;11.80;99.90
46552;DHT22;32278;51.810;4.712;2022-11-24T10:48:25;11.90;99.90
46552;DHT22;32278;51.810;4.712;2022-11-24T10:50:52;11.90;99.90
46552;DHT22;32278;51.810;4.712;2022-11-24T10:53:25;11.80;99.90
46552;DHT22;32278;51.810;4.712;2022-11-24T10:58:35;11.90;99.90
46552;DHT22;32278;51.810;4.712;2022-11-24T11:01:19;12.00;99.90
46552;DHT22;32278;51.810;4.712;2022-11-24T11:03:57;11.90;99.90
46552;DHT22;32278;51.810;4.712;2022-11-24T11:06:24;11.90;99.90
46552;DHT22;32278;51.810;4.712;2022-11-24T11:11:39;12.30;99.90
46552;DHT22;32278;51.810;4.712;2022-11-24T11:14:07;12.50;99.90
46552;DHT22;32278;51.810;4.712;2022-11-24T11:19:01;12.70;99.90
46552;DHT22;32278;51.810;4.712;2022-11-24T11:23:57;12.80;99.90
46552;DHT22;32278;51.810;4.712;2022-11-24T11:31:29;12.50;99.90
46552;DHT22;32278;51.810;4.712;2022-11-24T11:36:38;12.60;99.90
46552;DHT22;32278;51.810;4.712;2022-11-24T11:39:04;12.70;99.90
46552;DHT22;32278;51.810;4.712;2022-11-24T11:41:36;13.00;99.90
46552;DHT22;32278;51.810;4.712;2022-11-24T11:44:28;13.10;99.90
46552;DHT22;32278;51.810;4.712;2022-11-24T11:46:57;13.00;99.90
46552;DHT22;32278;51.810;4.712;2022-11-24T11:49:23;12.90;99.90
46552;DHT22;32278;51.810;4.712;2022-11-24T11:57:26;13.00;99.90
46552;DHT22;32278;51.810;4.712;2022-11-24T12:00:16;13.00;99.90
46552;DHT22;32278;51.810;4.712;2022-11-24T12:03:32;13.10;99.90
46552;DHT22;32278;51.810;4.712;2022-11-24T12:11:06;13.40;99.90
46552;DHT22;32278;51.810;4.712;2022-11-24T12:24:10;13.30;99.90
46552;DHT22;32278;51.810;4.712;2022-11-24T12:26:54;13.30;99.90
46552;DHT22;32278;51.810;4.712;2022-11-24T12:43:21;14.00;99.90
46552;DHT22;32278;51.810;4.712;2022-11-24T12:45:57;13.80;99.90
46552;DHT22;32278;51.810;4.712;2022-11-24T12:48:48;13.90;99.90
46552;DHT22;32278;51.810;4.712;2022-11-24T12:51:20;13.70;99.90
46552;DHT22;32278;51.810;4.712;2022-11-24T12:53:49;13.60;99.90
46552;DHT22;32278;51.810;4.712;2022-11-24T12:56:24;13.70;99.90
46552;DHT22;32278;51.810;4.712;2022-11-24T12:59:05;13.60;99.90
46552;DHT22;32278;51.810;4.712;2022-11-24T13:01:44;13.50;99.90
46552;DHT22;32278;51.810;4.712;2022-11-24T13:04:31;13.20;99.90
46552;DHT22;32278;51.810;4.712;2022-11-24T13:07:01;13.10;99.90
46552;DHT22;32278;51.810;4.712;2022-11-24T13:09:27;13.20;99.90
46552;DHT22;32278;51.810;4.712;2022-11-24T13:12:15;13.00;99.90
46552;DHT22;32278;51.810;4.712;2022-11-24T13:14:45;12.90;99.90
46552;DHT22;32278;51.810;4.712;2022-11-24T13:17:21;12.80;99.90
46552;DHT22;32278;51.810;4.712;2022-11-24T13:19:48;12.60;99.90
46552;DHT22;32278;51.810;4.712;2022-11-24T13:22:25;12.50;99.90
46552;DHT22;32278;51.810;4.712;2022-11-24T13:25:13;12.40;99.90
46552;DHT22;32278;51.810;4.712;2022-11-24T13:27:42;12.40;99.90
46552;DHT22;32278;51.810;4.712;2022-11-24T13:36:04;12.30;99.90
46552;DHT22;32278;51.810;4.712;2022-11-24T13:38:51;12.30;99.90
46552;DHT22;32278;51.810;4.712;2022-11-24T13:47:01;12.50;99.90
46552;DHT22;32278;51.810;4.712;2022-11-24T13:49:43;12.60;99.90
46552;DHT22;32278;51.810;4.712;2022-11-24T13:55:18;12.60;99.90
46552;DHT22;32278;51.810;4.712;2022-11-24T13:57:50;12.60;99.90
46552;DHT22;32278;51.810;4.712;2022-11-24T14:05:39;12.40;99.90
46552;DHT22;32278;51.810;4.712;2022-11-24T14:08:06;12.30;99.90
46552;DHT22;32278;51.810;4.712;2022-11-24T14:10:41;12.30;99.90
46552;DHT22;32278;51.810;4.712;2022-11-24T14:13:27;12.10;99.90
46552;DHT22;32278;51.810;4.712;2022-11-24T14:15:59;12.00;99.90
46552;DHT22;32278;51.810;4.712;2022-11-24T14:18:26;12.00;99.90
46552;DHT22;32278;51.810;4.712;2022-11-24T14:20:54;12.10;99.90
46552;DHT22;32278;51.810;4.712;2022-11-24T14:23:20;12.00;99.90
46552;DHT22;32278;51.810;4.712;2022-11-24T14:25:48;12.00;99.90
46552;DHT22;32278;51.810;4.712;2022-11-24T14:28:34;11.90;99.90
46552;DHT22;32278;51.810;4.712;2022-11-24T14:31:07;11.90;99.90
46552;DHT22;32278;51.810;4.712;2022-11-24T14:33:33;11.90;99.90
46552;DHT22;32278;51.810;4.712;2022-11-24T14:35:59;11.80;99.90
46552;DHT22;32278;51.810;4.712;2022-11-24T14:38:24;11.90;99.90
46552;DHT22;32278;51.810;4.712;2022-11-24T14:40:52;11.90;99.90
46552;DHT22;32278;51.810;4.712;2022-11-24T14:43:31;11.90;99.90
46552;DHT22;32278;51.810;4.712;2022-11-24T14:46:00;11.70;99.90
46552;DHT22;32278;51.810;4.712;2022-11-24T14:48:46;11.70;99.90
46552;DHT22;32278;51.810;4.712;2022-11-24T14:51:25;11.70;99.90
46552;DHT22;32278;51.810;4.712;2022-11-24T14:54:06;11.60;99.90
46552;DHT22;32278;51.810;4.712;2022-11-24T14:56:38;11.60;99.90
46552;DHT22;32278;51.810;4.712;2022-11-24T14:59:20;11.70;99.90
46552;DHT22;32278;51.810;4.712;2022-11-24T15:01:46;11.60;99.90
46552;DHT22;32278;51.810;4.712;2022-11-24T15:04:19;11.50;99.90
46552;DHT22;32278;51.810;4.712;2022-11-24T15:07:18;11.50;99.90
46552;DHT22;32278;51.810;4.712;2022-11-24T15:12:24;11.50;99.90
46552;DHT22;32278;51.810;4.712;2022-11-24T15:14:55;11.50;99.90
46552;DHT22;32278;51.810;4.712;2022-11-24T15:17:24;11.40;99.90
46552;DHT22;32278;51.810;4.712;2022-11-24T15:19:54;11.40;99.90
46552;DHT22;32278;51.810;4.712;2022-11-24T15:22:37;11.40;99.90
46552;DHT22;32278;51.810;4.712;2022-11-24T15:27:51;11.40;99.90
46552;DHT22;32278;51.810;4.712;2022-11-24T15:30:17;11.30;99.90
46552;DHT22;32278;51.810;4.712;2022-11-24T15:32:56;11.40;99.90
46552;DHT22;32278;51.810;4.712;2022-11-24T15:35:24;11.50;99.90
46552;DHT22;32278;51.810;4.712;2022-11-24T15:37:50;11.40;99.90
46552;DHT22;32278;51.810;4.712;2022-11-24T15:40:16;11.20;99.90
46552;DHT22;32278;51.810;4.712;2022-11-24T15:42:49;11.20;99.90
46552;DHT22;32278;51.810;4.712;2022-11-24T15:45:15;11.30;99.90
46552;DHT22;32278;51.810;4.712;2022-11-24T15:47:41;11.30;99.90
46552;DHT22;32278;51.810;4.712;2022-11-24T15:50:07;11.20;99.90
46552;DHT22;32278;51.810;4.712;2022-11-24T15:52:33;11.10;99.90
46552;DHT22;32278;51.810;4.712;2022-11-24T15:54:59;11.10;99.90
46552;DHT22;32278;51.810;4.712;2022-11-24T15:57:24;11.10;99.90
46552;DHT22;32278;51.810;4.712;2022-11-24T15:59:51;11.10;99.90
46552;DHT22;32278;51.810;4.712;2022-11-24T16:02:17;11.10;99.90
46552;DHT22;32278;51.810;4.712;2022-11-24T16:04:46;11.00;99.90
46552;DHT22;32278;51.810;4.712;2022-11-24T16:07:12;11.10;99.90
46552;DHT22;32278;51.810;4.712;2022-11-24T16:09:38;11.10;99.90
46552;DHT22;32278;51.810;4.712;2022-11-24T16:12:04;11.10;99.90
46552;DHT22;32278;51.810;4.712;2022-11-24T16:14:29;11.10;99.90
46552;DHT22;32278;51.810;4.712;2022-11-24T16:16:55;11.10;99.90
46552;DHT22;32278;51.810;4.712;2022-11-24T16:19:21;11.10;99.90
46552;DHT22;32278;51.810;4.712;2022-11-24T16:21:47;11.10;99.90
46552;DHT22;32278;51.810;4.712;2022-11-24T16:24:13;11.10;99.90
46552;DHT22;32278;51.810;4.712;2022-11-24T16:26:38;11.10;99.90
46552;DHT22;32278;51.810;4.712;2022-11-24T16:29:04;11.10;99.90
46552;DHT22;32278;51.810;4.712;2022-11-24T16:31:30;11.00;99.90
46552;DHT22;32278;51.810;4.712;2022-11-24T16:33:56;11.00;99.90
46552;DHT22;32278;51.810;4.712;2022-11-24T16:36:22;10.90;99.90
46552;DHT22;32278;51.810;4.712;2022-11-24T16:38:47;11.00;99.90
46552;DHT22;32278;51.810;4.712;2022-11-24T16:41:13;11.00;99.90
46552;DHT22;32278;51.810;4.712;2022-11-24T16:43:40;11.00;99.90
46552;DHT22;32278;51.810;4.712;2022-11-24T16:46:22;11.00;99.90
46552;DHT22;32278;51.810;4.712;2022-11-24T16:48:51;11.00;99.90
46552;DHT22;32278;51.810;4.712;2022-11-24T16:51:18;11.10;99.90
46552;DHT22;32278;51.810;4.712;2022-11-24T16:53:44;11.00;99.90
46552;DHT22;32278;51.810;4.712;2022-11-24T16:56:11;11.00;99.90
46552;DHT22;32278;51.810;4.712;2022-11-24T16:58:38;11.10;99.90
46552;DHT22;32278;51.810;4.712;2022-11-24T17:01:08;11.10;99.90
46552;DHT22;32278;51.810;4.712;2022-11-24T17:03:35;11.10;99.90
46552;DHT22;32278;51.810;4.712;2022-11-24T17:06:06;11.10;99.90
46552;DHT22;32278;51.810;4.712;2022-11-24T17:08:36;11.10;99.90
46552;DHT22;32278;51.810;4.712;2022-11-24T17:11:10;11.10;99.90
46552;DHT22;32278;51.810;4.712;2022-11-24T17:13:36;11.10;99.90
46552;DHT22;32278;51.810;4.712;2022-11-24T17:16:07;11.10;99.90
46552;DHT22;32278;51.810;4.712;2022-11-24T17:18:33;11.10;99.90
46552;DHT22;32278;51.810;4.712;2022-11-24T17:21:00;11.10;99.90